sensor_id;sensor_type;location;lat;lon;timestamp;pressure;altitude;pressure_sealevel;temperature;humidity
59939;BME280;45801;51.810;19.444;2023-07-29T00:01:58;98397.53;;;17.56;86.45
59939;BME280;45801;51.810;19.444;2023-07-29T00:04:24;98398.78;;;17.56;86.58
59939;BME280;45801;51.810;19.444;2023-07-29T00:06:52;98406.75;;;17.56;86.67
59939;BME280;45801;51.810;19.444;2023-07-29T00:09:18;98407.46;;;17.55;86.47
59939;BME280;45801;51.810;19.444;2023-07-29T00:11:46;98416.13;;;17.55;86.79
59939;BME280;45801;51.810;19.444;2023-07-29T00:14:12;98412.05;;;17.53;86.65
59939;BME280;45801;51.810;19.444;2023-07-29T00:16:39;98410.45;;;17.53;87.02
59939;BME280;45801;51.810;19.444;2023-07-29T00:19:06;98411.70;;;17.53;86.85
59939;BME280;45801;51.810;19.444;2023-07-29T00:21:32;98413.83;;;17.53;86.87
59939;BME280;45801;51.810;19.444;2023-07-29T00:24:01;98408.34;;;17.53;86.86
59939;BME280;45801;51.810;19.444;2023-07-29T00:26:27;98408.69;;;17.53;87.20
59939;BME280;45801;51.810;19.444;2023-07-29T00:28:56;98406.39;;;17.53;87.18
59939;BME280;45801;51.810;19.444;2023-07-29T00:31:22;98408.86;;;17.53;87.25
59939;BME280;45801;51.810;19.444;2023-07-29T00:33:49;98412.58;;;17.52;87.32
59939;BME280;45801;51.810;19.444;2023-07-29T00:36:16;98414.54;;;17.51;87.49
59939;BME280;45801;51.810;19.444;2023-07-29T00:38:42;98415.95;;;17.51;87.44
59939;BME280;45801;51.810;19.444;2023-07-29T00:41:09;98413.29;;;17.50;87.53
59939;BME280;45801;51.810;19.444;2023-07-29T00:43:39;98412.21;;;17.51;87.50
59939;BME280;45801;51.810;19.444;2023-07-29T00:46:08;98414.00;;;17.52;87.68
59939;BME280;45801;51.810;19.444;2023-07-29T00:48:36;98414.17;;;17.52;87.49
59939;BME280;45801;51.810;19.444;2023-07-29T00:51:03;98414.52;;;17.52;87.91
59939;BME280;45801;51.810;19.444;2023-07-29T00:53:30;98410.81;;;17.51;87.89
59939;BME280;45801;51.810;19.444;2023-07-29T00:55:56;98411.34;;;17.50;87.87
59939;BME280;45801;51.810;19.444;2023-07-29T00:58:23;98415.77;;;17.52;87.93
59939;BME280;45801;51.810;19.444;2023-07-29T01:00:50;98410.98;;;17.51;87.94
59939;BME280;45801;51.810;19.444;2023-07-29T01:03:17;98409.75;;;17.51;87.83
59939;BME280;45801;51.810;19.444;2023-07-29T01:08:55;98409.04;;;17.52;87.89
59939;BME280;45801;51.810;19.444;2023-07-29T01:11:33;98409.21;;;17.51;87.95
59939;BME280;45801;51.810;19.444;2023-07-29T01:14:44;98410.27;;;17.52;87.99
59939;BME280;45801;51.810;19.444;2023-07-29T01:17:25;98416.29;;;17.52;88.10
59939;BME280;45801;51.810;19.444;2023-07-29T01:20:07;98415.23;;;17.55;87.91
59939;BME280;45801;51.810;19.444;2023-07-29T01:22:35;98417.91;;;17.57;88.03
59939;BME280;45801;51.810;19.444;2023-07-29T01:25:03;98414.02;;;17.58;87.70
59939;BME280;45801;51.810;19.444;2023-07-29T01:27:30;98413.30;;;17.59;87.50
59939;BME280;45801;51.810;19.444;2023-07-29T01:29:57;98413.83;;;17.59;87.44
59939;BME280;45801;51.810;19.444;2023-07-29T01:32:44;98414.55;;;17.58;87.38
59939;BME280;45801;51.810;19.444;2023-07-29T01:35:23;98420.02;;;17.56;87.26
59939;BME280;45801;51.810;19.444;2023-07-29T01:37:55;98420.89;;;17.52;87.19
59939;BME280;45801;51.810;19.444;2023-07-29T01:40:26;98419.48;;;17.50;87.12
59939;BME280;45801;51.810;19.444;2023-07-29T01:42:55;98425.14;;;17.49;87.13
59939;BME280;45801;51.810;19.444;2023-07-29T01:45:26;98430.46;;;17.50;87.16
59939;BME280;45801;51.810;19.444;2023-07-29T01:47:53;98433.46;;;17.52;87.18
59939;BME280;45801;51.810;19.444;2023-07-29T01:50:20;98440.21;;;17.53;86.87
59939;BME280;45801;51.810;19.444;2023-07-29T01:52:47;98444.64;;;17.53;86.70
59939;BME280;45801;51.810;19.444;2023-07-29T01:55:13;98445.70;;;17.53;86.46
59939;BME280;45801;51.810;19.444;2023-07-29T01:57:40;98444.80;;;17.50;86.33
59939;BME280;45801;51.810;19.444;2023-07-29T02:00:07;98446.56;;;17.48;86.27
59939;BME280;45801;51.810;19.444;2023-07-29T02:02:34;98449.74;;;17.47;86.30
59939;BME280;45801;51.810;19.444;2023-07-29T02:05:00;98452.76;;;17.47;86.50
59939;BME280;45801;51.810;19.444;2023-07-29T02:07:27;98453.65;;;17.47;86.43
59939;BME280;45801;51.810;19.444;2023-07-29T02:09:53;98452.58;;;17.46;86.30
59939;BME280;45801;51.810;19.444;2023-07-29T02:12:20;98447.09;;;17.46;86.48
59939;BME280;45801;51.810;19.444;2023-07-29T02:14:46;98447.45;;;17.46;86.43
59939;BME280;45801;51.810;19.444;2023-07-29T02:17:13;98450.98;;;17.46;86.55
59939;BME280;45801;51.810;19.444;2023-07-29T02:19:39;98455.77;;;17.46;86.78
59939;BME280;45801;51.810;19.444;2023-07-29T02:22:06;98454.18;;;17.45;86.66
59939;BME280;45801;51.810;19.444;2023-07-29T02:24:32;98458.25;;;17.46;86.53
59939;BME280;45801;51.810;19.444;2023-07-29T02:26:59;98460.02;;;17.46;86.61
59939;BME280;45801;51.810;19.444;2023-07-29T02:29:25;98461.08;;;17.46;86.77
59939;BME280;45801;51.810;19.444;2023-07-29T02:31:52;98465.67;;;17.47;86.97
59939;BME280;45801;51.810;19.444;2023-07-29T02:34:18;98465.87;;;17.47;86.92
59939;BME280;45801;51.810;19.444;2023-07-29T02:36:45;98469.41;;;17.48;86.98
59939;BME280;45801;51.810;19.444;2023-07-29T02:39:11;98469.05;;;17.48;87.23
59939;BME280;45801;51.810;19.444;2023-07-29T02:41:38;98469.94;;;17.48;87.13
59939;BME280;45801;51.810;19.444;2023-07-29T02:44:05;98470.64;;;17.48;87.19
59939;BME280;45801;51.810;19.444;2023-07-29T02:46:32;98468.35;;;17.48;87.18
59939;BME280;45801;51.810;19.444;2023-07-29T02:48:58;98472.24;;;17.48;87.32
59939;BME280;45801;51.810;19.444;2023-07-29T02:51:25;98471.88;;;17.49;87.62
59939;BME280;45801;51.810;19.444;2023-07-29T02:53:52;98469.77;;;17.49;87.52
59939;BME280;45801;51.810;19.444;2023-07-29T02:56:18;98472.23;;;17.49;87.28
59939;BME280;45801;51.810;19.444;2023-07-29T02:58:45;98473.48;;;17.50;87.54
59939;BME280;45801;51.810;19.444;2023-07-29T03:01:11;98470.29;;;17.49;87.59
59939;BME280;45801;51.810;19.444;2023-07-29T03:03:39;98472.42;;;17.49;87.66
59939;BME280;45801;51.810;19.444;2023-07-29T03:06:08;98478.62;;;17.50;87.64
59939;BME280;45801;51.810;19.444;2023-07-29T03:08:34;98479.51;;;17.49;87.93
59939;BME280;45801;51.810;19.444;2023-07-29T03:11:13;98480.39;;;17.50;87.94
59939;BME280;45801;51.810;19.444;2023-07-29T03:13:40;98480.92;;;17.49;87.76
59939;BME280;45801;51.810;19.444;2023-07-29T03:16:12;98480.91;;;17.49;87.96
59939;BME280;45801;51.810;19.444;2023-07-29T03:18:41;98487.11;;;17.48;88.01
59939;BME280;45801;51.810;19.444;2023-07-29T03:21:09;98491.72;;;17.49;88.09
59939;BME280;45801;51.810;19.444;2023-07-29T03:23:37;98491.53;;;17.48;88.36
59939;BME280;45801;51.810;19.444;2023-07-29T03:26:04;98490.48;;;17.49;88.36
59939;BME280;45801;51.810;19.444;2023-07-29T03:28:39;98490.48;;;17.50;88.40
59939;BME280;45801;51.810;19.444;2023-07-29T03:31:06;98489.59;;;17.50;88.44
59939;BME280;45801;51.810;19.444;2023-07-29T03:33:33;98490.83;;;17.50;88.21
59939;BME280;45801;51.810;19.444;2023-07-29T03:35:59;98491.01;;;17.50;88.36
59939;BME280;45801;51.810;19.444;2023-07-29T03:38:26;98491.36;;;17.50;88.47
59939;BME280;45801;51.810;19.444;2023-07-29T03:40:52;98492.60;;;17.52;88.38
59939;BME280;45801;51.810;19.444;2023-07-29T03:43:19;98494.73;;;17.53;88.23
59939;BME280;45801;51.810;19.444;2023-07-29T03:45:46;98496.50;;;17.54;88.11
59939;BME280;45801;51.810;19.444;2023-07-29T03:48:12;98497.22;;;17.54;88.10
59939;BME280;45801;51.810;19.444;2023-07-29T03:50:39;98494.20;;;17.54;88.09
59939;BME280;45801;51.810;19.444;2023-07-29T03:53:05;98497.39;;;17.54;88.19
59939;BME280;45801;51.810;19.444;2023-07-29T03:55:32;98497.74;;;17.53;88.19
59939;BME280;45801;51.810;19.444;2023-07-29T03:57:59;98502.16;;;17.53;88.31
59939;BME280;45801;51.810;19.444;2023-07-29T04:00:26;98502.52;;;17.53;88.40
59939;BME280;45801;51.810;19.444;2023-07-29T04:02:53;98502.52;;;17.54;88.62
59939;BME280;45801;51.810;19.444;2023-07-29T04:05:20;98501.64;;;17.54;88.94
59939;BME280;45801;51.810;19.444;2023-07-29T04:07:46;98507.13;;;17.54;88.76
59939;BME280;45801;51.810;19.444;2023-07-29T04:10:13;98507.48;;;17.53;88.51
59939;BME280;45801;51.810;19.444;2023-07-29T04:12:39;98508.55;;;17.54;88.57
59939;BME280;45801;51.810;19.444;2023-07-29T04:15:06;98508.01;;;17.55;88.56
59939;BME280;45801;51.810;19.444;2023-07-29T04:17:33;98506.98;;;17.56;88.58
59939;BME280;45801;51.810;19.444;2023-07-29T04:19:59;98506.27;;;17.58;88.69
59939;BME280;45801;51.810;19.444;2023-07-29T04:22:26;98509.43;;;17.57;89.00
59939;BME280;45801;51.810;19.444;2023-07-29T04:24:52;98513.52;;;17.56;89.14
59939;BME280;45801;51.810;19.444;2023-07-29T04:27:19;98511.04;;;17.56;89.01
59939;BME280;45801;51.810;19.444;2023-07-29T04:29:45;98509.98;;;17.57;88.92
59939;BME280;45801;51.810;19.444;2023-07-29T04:32:11;98509.09;;;17.57;88.92
59939;BME280;45801;51.810;19.444;2023-07-29T04:34:38;98512.11;;;17.59;88.95
59939;BME280;45801;51.810;19.444;2023-07-29T04:37:04;98509.45;;;17.59;88.82
59939;BME280;45801;51.810;19.444;2023-07-29T04:39:31;98504.66;;;17.59;89.16
59939;BME280;45801;51.810;19.444;2023-07-29T04:41:57;98502.38;;;17.60;89.15
59939;BME280;45801;51.810;19.444;2023-07-29T04:44:24;98504.85;;;17.61;89.07
59939;BME280;45801;51.810;19.444;2023-07-29T04:46:50;98507.70;;;17.61;89.12
59939;BME280;45801;51.810;19.444;2023-07-29T04:49:17;98509.82;;;17.60;89.31
59939;BME280;45801;51.810;19.444;2023-07-29T04:51:43;98512.64;;;17.61;89.42
59939;BME280;45801;51.810;19.444;2023-07-29T04:54:10;98510.34;;;17.62;89.37
59939;BME280;45801;51.810;19.444;2023-07-29T04:56:36;98514.42;;;17.63;89.28
59939;BME280;45801;51.810;19.444;2023-07-29T04:59:03;98514.60;;;17.64;89.35
59939;BME280;45801;51.810;19.444;2023-07-29T05:01:29;98516.39;;;17.65;89.55
59939;BME280;45801;51.810;19.444;2023-07-29T05:03:55;98518.15;;;17.65;89.60
59939;BME280;45801;51.810;19.444;2023-07-29T05:06:22;98520.98;;;17.66;89.83
59939;BME280;45801;51.810;19.444;2023-07-29T05:08:48;98521.52;;;17.66;90.06
59939;BME280;45801;51.810;19.444;2023-07-29T05:11:14;98519.92;;;17.67;89.82
59939;BME280;45801;51.810;19.444;2023-07-29T05:13:41;98520.66;;;17.70;89.57
59939;BME280;45801;51.810;19.444;2023-07-29T05:16:10;98523.84;;;17.73;89.86
59939;BME280;45801;51.810;19.444;2023-07-29T05:18:36;98525.62;;;17.76;89.70
59939;BME280;45801;51.810;19.444;2023-07-29T05:21:02;98530.05;;;17.77;89.78
59939;BME280;45801;51.810;19.444;2023-07-29T05:23:29;98531.30;;;17.80;89.78
59939;BME280;45801;51.810;19.444;2023-07-29T05:25:55;98527.41;;;17.82;89.57
59939;BME280;45801;51.810;19.444;2023-07-29T05:28:22;98521.05;;;17.85;89.47
59939;BME280;45801;51.810;19.444;2023-07-29T05:30:49;98524.77;;;17.87;89.64
59939;BME280;45801;51.810;19.444;2023-07-29T05:33:15;98522.14;;;17.90;89.59
59939;BME280;45801;51.810;19.444;2023-07-29T05:35:42;98520.20;;;17.92;89.56
59939;BME280;45801;51.810;19.444;2023-07-29T05:38:08;98519.69;;;17.94;89.82
59939;BME280;45801;51.810;19.444;2023-07-29T05:40:36;98523.92;;;17.96;89.69
59939;BME280;45801;51.810;19.444;2023-07-29T05:43:02;98525.69;;;17.97;89.57
59939;BME280;45801;51.810;19.444;2023-07-29T05:45:29;98525.19;;;17.99;89.65
59939;BME280;45801;51.810;19.444;2023-07-29T05:47:57;98527.32;;;18.00;89.23
59939;BME280;45801;51.810;19.444;2023-07-29T05:50:23;98529.62;;;18.03;89.32
59939;BME280;45801;51.810;19.444;2023-07-29T05:52:50;98533.34;;;18.05;89.22
59939;BME280;45801;51.810;19.444;2023-07-29T05:55:16;98529.10;;;18.05;88.44
59939;BME280;45801;51.810;19.444;2023-07-29T05:57:42;98526.80;;;18.03;88.11
59939;BME280;45801;51.810;19.444;2023-07-29T06:00:10;98528.91;;;18.00;88.05
59939;BME280;45801;51.810;19.444;2023-07-29T06:02:37;98533.52;;;17.98;87.84
59939;BME280;45801;51.810;19.444;2023-07-29T06:05:03;98538.83;;;17.99;88.26
59939;BME280;45801;51.810;19.444;2023-07-29T06:07:30;98539.36;;;18.00;88.20
59939;BME280;45801;51.810;19.444;2023-07-29T06:09:58;98538.84;;;18.03;89.20
59939;BME280;45801;51.810;19.444;2023-07-29T06:12:25;98537.09;;;18.05;89.44
59939;BME280;45801;51.810;19.444;2023-07-29T06:14:51;98538.86;;;18.10;89.50
59939;BME280;45801;51.810;19.444;2023-07-29T06:17:18;98541.34;;;18.16;89.62
59939;BME280;45801;51.810;19.444;2023-07-29T06:20:00;98545.44;;;18.22;89.04
59939;BME280;45801;51.810;19.444;2023-07-29T06:22:26;98544.73;;;18.24;88.53
59939;BME280;45801;51.810;19.444;2023-07-29T06:24:53;98540.13;;;18.24;88.07
59939;BME280;45801;51.810;19.444;2023-07-29T06:27:19;98543.31;;;18.28;88.40
59939;BME280;45801;51.810;19.444;2023-07-29T06:29:46;98549.70;;;18.33;88.61
59939;BME280;45801;51.810;19.444;2023-07-29T06:32:12;98555.39;;;18.39;88.54
59939;BME280;45801;51.810;19.444;2023-07-29T06:34:38;98561.95;;;18.45;88.06
59939;BME280;45801;51.810;19.444;2023-07-29T06:37:05;98566.39;;;18.48;88.04
59939;BME280;45801;51.810;19.444;2023-07-29T06:39:31;98567.45;;;18.52;87.79
59939;BME280;45801;51.810;19.444;2023-07-29T06:41:58;98564.97;;;18.56;87.55
59939;BME280;45801;51.810;19.444;2023-07-29T06:44:24;98564.27;;;18.62;87.76
59939;BME280;45801;51.810;19.444;2023-07-29T06:46:50;98562.14;;;18.68;87.68
59939;BME280;45801;51.810;19.444;2023-07-29T06:49:17;98565.16;;;18.75;87.78
59939;BME280;45801;51.810;19.444;2023-07-29T06:51:43;98564.09;;;18.80;88.07
59939;BME280;45801;51.810;19.444;2023-07-29T06:54:10;98564.27;;;18.82;87.27
59939;BME280;45801;51.810;19.444;2023-07-29T06:56:36;98562.86;;;18.85;87.15
59939;BME280;45801;51.810;19.444;2023-07-29T06:59:03;98562.34;;;18.90;87.56
59939;BME280;45801;51.810;19.444;2023-07-29T07:01:29;98557.71;;;18.96;87.91
59939;BME280;45801;51.810;19.444;2023-07-29T07:03:56;98557.17;;;19.02;87.89
59939;BME280;45801;51.810;19.444;2023-07-29T07:06:24;98552.55;;;19.10;88.45
59939;BME280;45801;51.810;19.444;2023-07-29T07:08:51;98558.39;;;19.15;87.60
59939;BME280;45801;51.810;19.444;2023-07-29T07:11:19;98559.10;;;19.20;87.73
59939;BME280;45801;51.810;19.444;2023-07-29T07:13:46;98560.51;;;19.23;87.48
59939;BME280;45801;51.810;19.444;2023-07-29T07:16:12;98561.92;;;19.27;86.40
59939;BME280;45801;51.810;19.444;2023-07-29T07:18:38;98560.50;;;19.30;85.70
59939;BME280;45801;51.810;19.444;2023-07-29T07:21:05;98561.55;;;19.35;86.38
59939;BME280;45801;51.810;19.444;2023-07-29T07:23:31;98559.75;;;19.41;85.93
59939;BME280;45801;51.810;19.444;2023-07-29T07:25:58;98560.96;;;19.49;86.13
59939;BME280;45801;51.810;19.444;2023-07-29T07:28:24;98559.70;;;19.55;85.77
59939;BME280;45801;51.810;19.444;2023-07-29T07:30:51;98559.88;;;19.60;85.23
59939;BME280;45801;51.810;19.444;2023-07-29T07:33:17;98555.95;;;19.64;84.74
59939;BME280;45801;51.810;19.444;2023-07-29T07:35:44;98558.26;;;19.67;85.02
59939;BME280;45801;51.810;19.444;2023-07-29T07:38:11;98559.66;;;19.70;84.69
59939;BME280;45801;51.810;19.444;2023-07-29T07:40:37;98559.27;;;19.75;84.56
59939;BME280;45801;51.810;19.444;2023-07-29T07:43:03;98557.86;;;19.82;84.83
59939;BME280;45801;51.810;19.444;2023-07-29T07:45:32;98554.63;;;19.86;84.55
59939;BME280;45801;51.810;19.444;2023-07-29T07:47:58;98559.08;;;19.88;84.03
59939;BME280;45801;51.810;19.444;2023-07-29T07:50:25;98560.84;;;19.88;82.78
59939;BME280;45801;51.810;19.444;2023-07-29T07:52:52;98562.09;;;19.89;82.48
59939;BME280;45801;51.810;19.444;2023-07-29T07:55:18;98562.07;;;19.92;83.60
59939;BME280;45801;51.810;19.444;2023-07-29T07:57:44;98560.45;;;19.95;83.33
59939;BME280;45801;51.810;19.444;2023-07-29T08:00:13;98554.58;;;19.99;82.25
59939;BME280;45801;51.810;19.444;2023-07-29T08:02:43;98549.73;;;20.04;82.07
59939;BME280;45801;51.810;19.444;2023-07-29T08:05:10;98544.91;;;20.09;81.98
59939;BME280;45801;51.810;19.444;2023-07-29T08:07:36;98541.67;;;20.15;82.30
59939;BME280;45801;51.810;19.444;2023-07-29T08:10:03;98539.69;;;20.21;82.31
59939;BME280;45801;51.810;19.444;2023-07-29T08:12:29;98538.41;;;20.24;82.05
59939;BME280;45801;51.810;19.444;2023-07-29T08:14:56;98535.55;;;20.28;82.22
59939;BME280;45801;51.810;19.444;2023-07-29T08:17:22;98531.97;;;20.31;82.20
59939;BME280;45801;51.810;19.444;2023-07-29T08:19:49;98523.59;;;20.35;82.34
59939;BME280;45801;51.810;19.444;2023-07-29T08:22:15;98521.59;;;20.40;81.86
59939;BME280;45801;51.810;19.444;2023-07-29T08:24:43;98521.58;;;20.40;81.12
59939;BME280;45801;51.810;19.444;2023-07-29T08:27:09;98521.05;;;20.42;80.43
59939;BME280;45801;51.810;19.444;2023-07-29T08:29:36;98522.44;;;20.44;80.08
59939;BME280;45801;51.810;19.444;2023-07-29T08:32:02;98520.62;;;20.49;80.19
59939;BME280;45801;51.810;19.444;2023-07-29T08:34:29;98520.23;;;20.55;79.23
59939;BME280;45801;51.810;19.444;2023-07-29T08:36:55;98517.13;;;20.63;78.94
59939;BME280;45801;51.810;19.444;2023-07-29T08:39:22;98519.41;;;20.70;78.19
59939;BME280;45801;51.810;19.444;2023-07-29T08:42:00;98518.49;;;20.72;77.71
59939;BME280;45801;51.810;19.444;2023-07-29T08:44:44;98513.83;;;20.78;77.85
59939;BME280;45801;51.810;19.444;2023-07-29T08:47:12;98510.17;;;20.88;77.54
59939;BME280;45801;51.810;19.444;2023-07-29T08:49:40;98511.68;;;20.96;76.28
59939;BME280;45801;51.810;19.444;2023-07-29T08:52:09;98510.35;;;21.05;76.56
59939;BME280;45801;51.810;19.444;2023-07-29T08:54:36;98509.02;;;21.14;76.64
59939;BME280;45801;51.810;19.444;2023-07-29T08:57:03;98509.69;;;21.17;75.94
59939;BME280;45801;51.810;19.444;2023-07-29T08:59:30;98511.24;;;21.21;75.94
59939;BME280;45801;51.810;19.444;2023-07-29T09:01:57;98512.96;;;21.28;74.88
59939;BME280;45801;51.810;19.444;2023-07-29T09:04:24;98508.09;;;21.33;75.45
59939;BME280;45801;51.810;19.444;2023-07-29T09:06:51;98509.05;;;21.41;74.56
59939;BME280;45801;51.810;19.444;2023-07-29T09:09:17;98506.68;;;21.48;74.84
59939;BME280;45801;51.810;19.444;2023-07-29T09:11:44;98506.43;;;21.55;73.81
59939;BME280;45801;51.810;19.444;2023-07-29T09:14:11;98504.92;;;21.61;73.34
59939;BME280;45801;51.810;19.444;2023-07-29T09:16:38;98502.23;;;21.64;72.80
59939;BME280;45801;51.810;19.444;2023-07-29T09:19:05;98499.90;;;21.64;72.73
59939;BME280;45801;51.810;19.444;2023-07-29T09:21:32;98497.56;;;21.65;73.30
59939;BME280;45801;51.810;19.444;2023-07-29T09:24:03;98498.38;;;21.71;73.86
59939;BME280;45801;51.810;19.444;2023-07-29T09:26:30;98495.64;;;21.76;73.46
59939;BME280;45801;51.810;19.444;2023-07-29T09:28:59;98491.84;;;21.81;72.51
59939;BME280;45801;51.810;19.444;2023-07-29T09:31:27;98489.82;;;21.84;71.87
59939;BME280;45801;51.810;19.444;2023-07-29T09:34:04;98492.45;;;21.88;70.74
59939;BME280;45801;51.810;19.444;2023-07-29T09:36:33;98487.58;;;21.91;68.88
59939;BME280;45801;51.810;19.444;2023-07-29T09:39:01;98494.20;;;22.03;70.83
59939;BME280;45801;51.810;19.444;2023-07-29T09:41:29;98492.26;;;22.12;70.72
59939;BME280;45801;51.810;19.444;2023-07-29T09:44:03;98491.52;;;22.13;69.53
59939;BME280;45801;51.810;19.444;2023-07-29T09:46:37;98486.95;;;22.10;70.97
59939;BME280;45801;51.810;19.444;2023-07-29T09:49:05;98483.92;;;22.10;70.89
59939;BME280;45801;51.810;19.444;2023-07-29T09:51:37;98483.38;;;22.10;70.85
59939;BME280;45801;51.810;19.444;2023-07-29T09:54:04;98477.59;;;22.16;70.94
59939;BME280;45801;51.810;19.444;2023-07-29T09:56:31;98477.30;;;22.23;70.06
59939;BME280;45801;51.810;19.444;2023-07-29T09:58:57;98475.96;;;22.29;69.45
59939;BME280;45801;51.810;19.444;2023-07-29T10:01:24;98473.16;;;22.38;69.13
59939;BME280;45801;51.810;19.444;2023-07-29T10:03:52;98473.03;;;22.47;67.94
59939;BME280;45801;51.810;19.444;2023-07-29T10:06:19;98476.50;;;22.52;67.97
59939;BME280;45801;51.810;19.444;2023-07-29T10:08:47;98475.11;;;22.59;68.97
59939;BME280;45801;51.810;19.444;2023-07-29T10:11:14;98470.66;;;22.69;69.04
59939;BME280;45801;51.810;19.444;2023-07-29T10:13:40;98473.33;;;22.80;67.36
59939;BME280;45801;51.810;19.444;2023-07-29T10:16:07;98464.75;;;22.90;67.58
59939;BME280;45801;51.810;19.444;2023-07-29T10:18:34;98462.92;;;23.02;67.54
59939;BME280;45801;51.810;19.444;2023-07-29T10:21:02;98467.00;;;23.14;67.04
59939;BME280;45801;51.810;19.444;2023-07-29T10:23:42;98468.80;;;23.23;66.60
59939;BME280;45801;51.810;19.444;2023-07-29T10:26:10;98463.09;;;23.31;64.94
59939;BME280;45801;51.810;19.444;2023-07-29T10:28:47;98462.34;;;23.41;65.76
59939;BME280;45801;51.810;19.444;2023-07-29T10:31:17;98463.55;;;23.44;62.68
59939;BME280;45801;51.810;19.444;2023-07-29T10:33:44;98457.66;;;23.43;62.67
59939;BME280;45801;51.810;19.444;2023-07-29T10:36:11;98461.58;;;23.43;63.50
59939;BME280;45801;51.810;19.444;2023-07-29T10:38:38;98462.58;;;23.47;64.38
59939;BME280;45801;51.810;19.444;2023-07-29T10:41:05;98455.61;;;23.56;65.17
59939;BME280;45801;51.810;19.444;2023-07-29T10:43:33;98453.83;;;23.63;64.21
59939;BME280;45801;51.810;19.444;2023-07-29T10:46:22;98451.30;;;23.72;64.36
59939;BME280;45801;51.810;19.444;2023-07-29T10:48:54;98450.77;;;23.81;61.48
59939;BME280;45801;51.810;19.444;2023-07-29T10:51:34;98450.52;;;23.93;63.56
59939;BME280;45801;51.810;19.444;2023-07-29T10:54:02;98449.49;;;24.06;63.77
59939;BME280;45801;51.810;19.444;2023-07-29T10:56:33;98451.23;;;24.16;62.76
59939;BME280;45801;51.810;19.444;2023-07-29T11:01:50;98446.42;;;24.37;62.43
59939;BME280;45801;51.810;19.444;2023-07-29T11:09:58;98431.54;;;24.60;60.44
59939;BME280;45801;51.810;19.444;2023-07-29T11:12:44;98435.14;;;24.66;60.28
59939;BME280;45801;51.810;19.444;2023-07-29T11:17:45;98430.53;;;24.84;58.68
59939;BME280;45801;51.810;19.444;2023-07-29T11:20:13;98429.39;;;24.93;59.96
59939;BME280;45801;51.810;19.444;2023-07-29T11:22:40;98429.13;;;25.03;60.06
59939;BME280;45801;51.810;19.444;2023-07-29T11:25:09;98424.40;;;24.99;57.95
59939;BME280;45801;51.810;19.444;2023-07-29T11:27:36;98422.31;;;24.97;57.22
59939;BME280;45801;51.810;19.444;2023-07-29T11:30:09;98421.23;;;25.03;57.04
59939;BME280;45801;51.810;19.444;2023-07-29T11:32:39;98416.54;;;25.11;57.33
59939;BME280;45801;51.810;19.444;2023-07-29T11:35:08;98410.95;;;25.18;57.53
59939;BME280;45801;51.810;19.444;2023-07-29T11:37:37;98408.74;;;25.27;57.83
59939;BME280;45801;51.810;19.444;2023-07-29T11:40:04;98405.42;;;25.37;57.71
59939;BME280;45801;51.810;19.444;2023-07-29T11:42:33;98403.18;;;25.46;57.21
59939;BME280;45801;51.810;19.444;2023-07-29T11:45:03;98405.02;;;25.44;56.58
59939;BME280;45801;51.810;19.444;2023-07-29T11:47:32;98403.22;;;25.44;56.73
59939;BME280;45801;51.810;19.444;2023-07-29T11:50:13;98400.90;;;25.50;56.29
59939;BME280;45801;51.810;19.444;2023-07-29T11:52:44;98400.27;;;25.59;57.26
59939;BME280;45801;51.810;19.444;2023-07-29T11:55:13;98402.77;;;25.59;54.35
59939;BME280;45801;51.810;19.444;2023-07-29T11:57:41;98399.48;;;25.55;55.46
59939;BME280;45801;51.810;19.444;2023-07-29T12:00:09;98398.50;;;25.46;55.61
59939;BME280;45801;51.810;19.444;2023-07-29T12:02:40;98395.75;;;25.36;55.06
59939;BME280;45801;51.810;19.444;2023-07-29T12:05:09;98390.12;;;25.26;55.70
59939;BME280;45801;51.810;19.444;2023-07-29T12:07:39;98388.10;;;25.28;57.43
59939;BME280;45801;51.810;19.444;2023-07-29T12:10:06;98387.93;;;25.34;56.70
59939;BME280;45801;51.810;19.444;2023-07-29T12:12:33;98388.98;;;25.41;56.22
59939;BME280;45801;51.810;19.444;2023-07-29T12:14:59;98382.44;;;25.50;56.23
59939;BME280;45801;51.810;19.444;2023-07-29T12:17:27;98375.91;;;25.57;56.18
59939;BME280;45801;51.810;19.444;2023-07-29T12:19:54;98375.54;;;25.65;55.39
59939;BME280;45801;51.810;19.444;2023-07-29T12:22:21;98370.94;;;25.74;55.31
59939;BME280;45801;51.810;19.444;2023-07-29T12:24:50;98363.39;;;25.80;54.92
59939;BME280;45801;51.810;19.444;2023-07-29T12:27:17;98365.13;;;25.82;55.48
59939;BME280;45801;51.810;19.444;2023-07-29T12:29:44;98365.39;;;25.79;55.36
59939;BME280;45801;51.810;19.444;2023-07-29T12:32:12;98364.71;;;25.72;55.36
59939;BME280;45801;51.810;19.444;2023-07-29T12:34:40;98359.19;;;25.66;56.06
59939;BME280;45801;51.810;19.444;2023-07-29T12:37:07;98355.39;;;25.66;56.17
59939;BME280;45801;51.810;19.444;2023-07-29T12:39:35;98353.88;;;25.63;55.37
59939;BME280;45801;51.810;19.444;2023-07-29T12:42:03;98351.09;;;25.61;55.62
59939;BME280;45801;51.810;19.444;2023-07-29T12:44:32;98350.91;;;25.67;55.21
59939;BME280;45801;51.810;19.444;2023-07-29T12:47:01;98345.05;;;25.70;54.52
59939;BME280;45801;51.810;19.444;2023-07-29T12:49:29;98341.36;;;25.67;53.56
59939;BME280;45801;51.810;19.444;2023-07-29T12:51:57;98339.27;;;25.66;54.44
59939;BME280;45801;51.810;19.444;2023-07-29T12:54:23;98337.44;;;25.72;54.54
59939;BME280;45801;51.810;19.444;2023-07-29T12:56:51;98335.46;;;25.78;54.42
59939;BME280;45801;51.810;19.444;2023-07-29T12:59:17;98329.89;;;25.84;52.88
59939;BME280;45801;51.810;19.444;2023-07-29T13:01:44;98330.85;;;25.93;53.74
59939;BME280;45801;51.810;19.444;2023-07-29T13:04:10;98332.95;;;26.01;53.45
59939;BME280;45801;51.810;19.444;2023-07-29T13:06:37;98333.09;;;26.07;52.97
59939;BME280;45801;51.810;19.444;2023-07-29T13:09:04;98334.83;;;26.09;53.07